Time;durP1;ratioP1;P1;durP2;ratioP2;P2;SDS_P1;SDS_P2;PMS_P1;PMS_P2;Temp;Humidity;BMP_temperature;BMP_pressure;BME280_temperature;BME280_humidity;BME280_pressure;Samples;Min_cycle;Max_cycle;Signal;HPM_P1;HPM_P2
2022/12/02 00:01:48;;;;;;;3.83;1.20;;;;;;;9.65;76.50;99438.78;6249949;22;20223;-88
2022/12/02 00:04:22;;;;;;;2.77;1.23;;;;;;;9.67;76.96;99437.81;6250033;22;20163;-88
2022/12/02 00:06:50;;;;;;;1.63;1.07;;;;;;;9.62;76.59;99434.53;6277388;22;20570;-88
2022/12/02 00:09:30;;;;;;;2.00;1.00;;;;;;;9.58;77.00;99438.22;6277401;22;20163;-88
2022/12/02 00:11:56;;;;;;;2.43;0.97;;;;;;;9.58;77.36;99440.00;6277025;22;20551;-88
2022/12/02 00:14:25;;;;;;;1.93;0.90;;;;;;;9.63;76.85;99436.25;6276655;22;20581;-88
2022/12/02 00:16:51;;;;;;;3.60;1.47;;;;;;;9.63;77.21;99440.63;6250301;22;20231;-88
2022/12/02 00:19:16;;;;;;;2.37;1.10;;;;;;;9.63;77.13;99438.88;6276389;22;20602;-88
2022/12/02 00:21:42;;;;;;;2.30;1.37;;;;;;;9.64;77.01;99443.16;6250532;22;20537;-88
2022/12/02 00:24:08;;;;;;;2.83;1.30;;;;;;;9.57;77.47;99443.50;6249937;22;20183;-88
2022/12/02 00:26:33;;;;;;;2.60;1.00;;;;;;;9.60;77.01;99439.00;6277231;22;20147;-87
2022/12/02 00:28:59;;;;;;;2.03;1.03;;;;;;;9.50;77.77;99436.84;6276896;22;20151;-88
2022/12/02 00:31:24;;;;;;;3.07;1.10;;;;;;;9.44;78.02;99442.34;6249781;22;20160;-88
2022/12/02 00:33:49;;;;;;;2.07;1.00;;;;;;;9.38;78.46;99437.38;6249865;22;20148;-87
2022/12/02 00:36:15;;;;;;;5.43;0.90;;;;;;;9.45;78.72;99441.44;6276566;22;20478;-87
2022/12/02 00:38:40;;;;;;;1.73;0.80;;;;;;;9.23;79.09;99437.13;6249762;22;20160;-87
2022/12/02 00:41:06;;;;;;;2.47;0.97;;;;;;;9.23;79.55;99439.72;6276502;22;20155;-87
2022/12/02 00:49:14;;;;;;;1.27;0.50;;;;;;;9.08;80.67;99431.69;6276897;22;20151;-87
2022/12/02 00:51:41;;;;;;;2.17;0.80;;;;;;;9.20;80.11;99437.25;6249749;22;20151;-87
2022/12/02 00:54:07;;;;;;;0.67;0.43;;;;;;;9.19;80.44;99430.34;6277115;22;20182;-87
2022/12/02 00:56:32;;;;;;;2.50;1.27;;;;;;;9.31;80.59;99428.09;6277125;22;20152;-87
2022/12/02 00:58:59;;;;;;;1.47;0.80;;;;;;;9.37;80.13;99427.84;6276433;22;20313;-87
2022/12/02 01:01:25;;;;;;;1.50;0.87;;;;;;;9.39;79.91;99420.75;6249643;22;20206;-88
2022/12/02 01:03:51;;;;;;;1.13;0.70;;;;;;;9.36;79.84;99426.97;6277065;22;20234;-87
2022/12/02 01:06:17;;;;;;;1.63;0.63;;;;;;;9.30;79.95;99436.88;6252068;22;20160;-87
2022/12/02 01:08:43;;;;;;;2.90;1.37;;;;;;;9.37;80.23;99430.44;6279113;22;20147;-88
2022/12/02 01:11:09;;;;;;;1.47;0.80;;;;;;;9.41;79.96;99432.03;6251706;22;20156;-87
2022/12/02 01:13:35;;;;;;;0.80;0.43;;;;;;;9.50;79.76;99429.84;6251662;22;20667;-87
2022/12/02 01:16:00;;;;;;;1.50;0.70;;;;;;;9.56;79.59;99428.75;6278349;22;20173;-87
2022/12/02 01:18:26;;;;;;;1.50;0.80;;;;;;;9.63;79.01;99425.78;6278375;22;20553;-87
2022/12/02 01:20:51;;;;;;;2.23;1.07;;;;;;;9.56;78.98;99426.13;6279506;22;20546;-88
2022/12/02 01:23:17;;;;;;;3.77;1.17;;;;;;;9.41;79.52;99425.00;6278218;22;20274;-87
2022/12/02 01:25:43;;;;;;;2.00;1.10;;;;;;;9.37;79.66;99430.44;6278949;22;20217;-87
2022/12/02 01:28:09;;;;;;;1.87;0.93;;;;;;;9.50;80.03;99429.84;6278597;22;20228;-87
2022/12/02 01:30:34;;;;;;;1.63;0.70;;;;;;;9.49;79.33;99427.28;6278551;22;20155;-88
2022/12/02 01:33:00;;;;;;;1.13;0.70;;;;;;;9.50;79.66;99432.47;6251493;22;20148;-87
2022/12/02 01:35:25;;;;;;;0.80;0.50;;;;;;;9.31;80.22;99438.53;6251443;22;20152;-87
2022/12/02 01:37:50;;;;;;;2.93;1.20;;;;;;;9.41;79.70;99435.47;6251399;22;20313;-87
2022/12/02 01:40:17;;;;;;;2.50;1.30;;;;;;;9.41;79.54;99418.94;6251473;22;20231;-87
2022/12/02 01:42:44;;;;;;;2.60;1.00;;;;;;;9.39;80.11;99426.00;6278000;22;20229;-87
2022/12/02 01:45:10;;;;;;;2.53;1.00;;;;;;;9.49;79.49;99420.28;6278089;22;20156;-87
2022/12/02 01:47:37;;;;;;;3.00;1.20;;;;;;;9.47;79.80;99422.13;6251720;22;20148;-88
2022/12/02 01:50:05;;;;;;;2.20;1.00;;;;;;;9.39;79.98;99429.47;6278715;22;20162;-87
2022/12/02 01:52:30;;;;;;;2.30;1.00;;;;;;;9.41;79.69;99429.41;6251316;22;20145;-87
2022/12/02 01:54:56;;;;;;;1.33;0.60;;;;;;;9.42;80.03;99421.50;6278337;22;20178;-88
2022/12/02 01:57:26;;;;;;;2.80;1.33;;;;;;;9.29;79.93;99425.53;6251273;22;20149;-87
2022/12/02 01:59:52;;;;;;;2.27;1.00;;;;;;;9.39;80.36;99428.59;6277964;22;20145;-88
2022/12/02 02:02:32;;;;;;;2.87;1.03;;;;;;;9.39;79.96;99421.63;6251498;22;20172;-88
2022/12/02 02:05:22;;;;;;;3.17;1.53;;;;;;;9.46;79.82;99427.44;6278322;22;20136;-87
2022/12/02 02:07:50;;;;;;;2.53;1.20;;;;;;;9.58;79.15;99425.16;6250327;22;20157;-87
2022/12/02 02:10:17;;;;;;;2.73;1.10;;;;;;;9.65;79.33;99430.94;6278080;22;20236;-88
2022/12/02 02:12:46;;;;;;;3.13;1.17;;;;;;;9.66;78.86;99420.41;6277806;22;20148;-87
2022/12/02 02:15:14;;;;;;;2.17;0.90;;;;;;;9.68;78.72;99422.97;6277154;22;20144;-87
2022/12/02 02:17:39;;;;;;;2.67;1.17;;;;;;;9.67;78.66;99423.91;6277839;22;20281;-87
2022/12/02 02:20:09;;;;;;;3.53;1.03;;;;;;;9.69;78.32;99422.06;6245823;23;20248;-88
2022/12/02 02:22:44;;;;;;;2.00;1.07;;;;;;;9.54;79.38;99422.75;6246214;23;20188;-87
2022/12/02 02:25:12;;;;;;;2.40;1.00;;;;;;;9.62;78.92;99423.22;6247442;22;20140;-86
2022/12/02 02:27:38;;;;;;;2.27;1.10;;;;;;;9.59;79.12;99424.19;6245874;23;20480;-86
2022/12/02 02:30:04;;;;;;;2.90;0.80;;;;;;;9.63;78.88;99419.69;6247052;22;20607;-87
2022/12/02 02:32:30;;;;;;;2.07;1.10;;;;;;;9.63;79.06;99424.94;6245793;23;20153;-86
2022/12/02 02:34:56;;;;;;;1.87;0.90;;;;;;;9.66;78.75;99427.41;6247046;22;20229;-87
2022/12/02 02:37:21;;;;;;;1.83;1.00;;;;;;;9.62;78.97;99423.22;6247366;22;20478;-87
2022/12/02 02:39:47;;;;;;;2.33;0.90;;;;;;;9.62;79.12;99424.06;6245770;23;20495;-87
2022/12/02 02:42:12;;;;;;;1.80;0.93;;;;;;;9.61;78.94;99426.78;6246833;22;20183;-87
2022/12/02 02:44:38;;;;;;;1.20;0.70;;;;;;;9.51;79.11;99415.00;6245738;23;20247;-87
2022/12/02 02:47:04;;;;;;;2.33;1.17;;;;;;;9.50;79.60;99415.91;6246929;22;20145;-86
2022/12/02 02:49:29;;;;;;;2.33;1.00;;;;;;;9.56;79.26;99416.50;6246828;22;20149;-87
2022/12/02 02:51:55;;;;;;;3.53;1.53;;;;;;;9.57;79.51;99417.34;6246874;23;20152;-87
2022/12/02 02:54:20;;;;;;;2.87;1.33;;;;;;;9.61;79.17;99411.94;6245623;23;20157;-87
2022/12/02 02:56:46;;;;;;;5.30;2.50;;;;;;;9.54;79.35;99418.31;6246778;23;20178;-87
2022/12/02 02:59:15;;;;;;;5.10;1.93;;;;;;;9.35;80.12;99422.69;6246765;22;20482;-87
2022/12/02 03:01:43;;;;;;;5.23;2.00;;;;;;;9.38;80.11;99419.06;6245547;23;20502;-87
2022/12/02 03:04:12;;;;;;;5.40;1.90;;;;;;;9.31;80.21;99418.47;6246186;23;20195;-87
2022/12/02 03:06:40;;;;;;;3.80;1.90;;;;;;;9.29;80.48;99420.31;6247455;22;20159;-87
2022/12/02 03:09:08;;;;;;;3.13;1.60;;;;;;;9.41;80.13;99417.16;6245470;23;20486;-86
2022/12/02 03:11:37;;;;;;;6.00;2.40;;;;;;;9.45;79.84;99415.28;6246639;22;20144;-87
2022/12/02 03:14:03;;;;;;;5.57;2.10;;;;;;;9.50;79.72;99418.53;6245408;23;20148;-87
2022/12/02 03:16:29;;;;;;;3.67;1.93;;;;;;;9.59;79.56;99421.59;6247326;22;20587;-87
2022/12/02 03:18:56;;;;;;;3.70;1.50;;;;;;;9.58;79.64;99425.16;6249154;22;20159;-86
2022/12/02 03:21:24;;;;;;;3.03;1.63;;;;;;;9.61;79.89;99424.16;6277202;22;20136;-87
2022/12/02 03:23:52;;;;;;;3.87;2.03;;;;;;;9.58;79.30;99419.91;6277046;22;20239;-87
2022/12/02 03:26:17;;;;;;;6.17;2.63;;;;;;;9.64;79.54;99421.41;6276973;22;20161;-87
2022/12/02 03:28:44;;;;;;;3.77;1.97;;;;;;;9.57;79.13;99420.81;6250279;22;20157;-87
2022/12/02 03:31:10;;;;;;;5.90;2.70;;;;;;;9.50;79.85;99418.53;6277080;22;20263;-87
2022/12/02 03:33:36;;;;;;;5.93;2.53;;;;;;;9.64;79.77;99424.03;6277727;22;20145;-86
2022/12/02 03:36:03;;;;;;;5.90;2.23;;;;;;;9.72;79.47;99429.78;6277033;22;20144;-87
2022/12/02 03:38:31;;;;;;;5.77;2.23;;;;;;;9.65;79.28;99428.31;6276943;22;20160;-86
2022/12/02 03:40:57;;;;;;;6.20;3.00;;;;;;;9.75;79.35;99434.84;6277332;22;20147;-86
2022/12/02 03:43:23;;;;;;;6.10;2.20;;;;;;;9.79;79.06;99428.56;6250592;22;20253;-87
2022/12/02 03:45:48;;;;;;;6.47;3.13;;;;;;;9.83;78.94;99436.22;6276928;22;20156;-86
2022/12/02 03:48:20;;;;;;;7.93;2.93;;;;;;;9.88;78.80;99430.75;6250084;22;20161;-86
2022/12/02 03:50:46;;;;;;;6.77;2.97;;;;;;;9.87;78.75;99439.56;6277238;22;20137;-86
2022/12/02 03:53:11;;;;;;;6.83;3.03;;;;;;;9.84;78.90;99437.91;6277172;22;20473;-86
2022/12/02 03:55:37;;;;;;;8.20;3.97;;;;;;;9.85;78.14;99447.47;6250080;22;20159;-86
2022/12/02 03:58:06;;;;;;;11.40;3.47;;;;;;;9.89;78.88;99451.66;6277507;22;20152;-87
2022/12/02 04:00:34;;;;;;;8.07;4.07;;;;;;;9.92;78.20;99450.66;6276736;22;20212;-87
2022/12/02 04:02:59;;;;;;;9.67;3.27;;;;;;;9.90;78.28;99457.75;6276636;22;20175;-87
2022/12/02 04:05:25;;;;;;;6.67;3.27;;;;;;;9.83;78.50;99456.28;6276789;22;20247;-87
2022/12/02 04:07:50;;;;;;;10.77;3.93;;;;;;;9.84;78.88;99452.78;6276730;22;20148;-86
2022/12/02 04:10:16;;;;;;;9.80;3.20;;;;;;;9.80;79.03;99462.53;6249964;22;20152;-86
2022/12/02 04:12:41;;;;;;;5.87;2.27;;;;;;;9.83;79.01;99459.78;6277049;22;20158;-86
2022/12/02 04:15:07;;;;;;;8.27;3.20;;;;;;;9.84;78.62;99468.47;6249952;22;20197;-86
2022/12/02 04:17:33;;;;;;;6.53;3.20;;;;;;;9.63;79.38;99466.81;6249844;22;20155;-86
2022/12/02 04:19:58;;;;;;;6.53;3.73;;;;;;;9.62;80.08;99473.81;6244755;23;20643;-86
2022/12/02 04:22:23;;;;;;;9.43;3.77;;;;;;;9.70;79.95;99470.84;6246162;23;20169;-86
2022/12/02 04:24:49;;;;;;;5.67;3.10;;;;;;;9.66;79.53;99472.75;6244854;23;20160;-86
2022/12/02 04:27:14;;;;;;;7.03;2.60;;;;;;;9.59;80.32;99481.78;6245974;22;20172;-86
2022/12/02 04:29:40;;;;;;;6.20;2.50;;;;;;;9.69;80.13;99479.63;6246320;22;20223;-86
2022/12/02 04:32:05;;;;;;;7.30;3.17;;;;;;;9.72;79.63;99482.13;6246330;22;20169;-86
2022/12/02 04:34:31;;;;;;;10.07;3.00;;;;;;;9.76;79.78;99476.69;6246410;22;20156;-86
2022/12/02 04:36:56;;;;;;;7.33;3.10;;;;;;;9.82;79.44;99486.03;6245717;23;20164;-86
2022/12/02 04:39:21;;;;;;;5.83;1.93;;;;;;;9.70;79.13;99491.78;6244314;23;20499;-86
2022/12/02 04:41:47;;;;;;;6.63;3.13;;;;;;;9.82;79.33;99486.03;6244981;23;20156;-86
2022/12/02 04:44:12;;;;;;;6.30;2.80;;;;;;;9.80;79.35;99480.84;6245925;22;20182;-86
2022/12/02 04:46:38;;;;;;;5.13;2.20;;;;;;;9.64;79.34;99492.91;6245954;22;20615;-86
2022/12/02 04:49:03;;;;;;;5.27;2.60;;;;;;;9.77;79.55;99496.69;6245954;22;20612;-86
2022/12/02 04:51:29;;;;;;;7.13;2.53;;;;;;;9.84;79.11;99502.53;6245903;23;20215;-86
2022/12/02 04:53:54;;;;;;;6.53;3.30;;;;;;;9.90;79.05;99499.63;6245874;22;20152;-86
2022/12/02 04:56:19;;;;;;;5.57;2.67;;;;;;;9.94;78.89;99501.19;6244650;23;20160;-87
2022/12/02 04:58:45;;;;;;;5.77;2.83;;;;;;;9.96;78.51;99501.97;6246186;22;20160;-86
2022/12/02 05:01:10;;;;;;;7.27;3.00;;;;;;;9.99;77.86;99503.59;6244576;23;20529;-86
2022/12/02 05:03:36;;;;;;;9.37;2.93;;;;;;;9.93;78.52;99506.50;6245753;22;20172;-86
2022/12/02 05:06:01;;;;;;;11.33;3.47;;;;;;;9.90;78.37;99517.97;6244610;23;20156;-86
2022/12/02 05:08:27;;;;;;;7.37;3.10;;;;;;;9.63;79.19;99512.16;6244590;23;20624;-86
2022/12/02 05:10:52;;;;;;;8.17;3.13;;;;;;;9.61;80.08;99515.75;6244542;23;20160;-86
2022/12/02 05:13:17;;;;;;;8.50;3.80;;;;;;;9.71;79.93;99514.44;6244562;23;20487;-87
2022/12/02 05:15:43;;;;;;;7.43;3.17;;;;;;;9.80;79.27;99521.91;6245749;22;20159;-87
2022/12/02 05:18:08;;;;;;;6.60;3.57;;;;;;;9.74;79.44;99530.03;6245686;23;20154;-87
2022/12/02 05:20:34;;;;;;;5.77;3.17;;;;;;;9.87;78.90;99518.97;6249391;22;20196;-87
2022/12/02 05:22:59;;;;;;;9.27;4.07;;;;;;;9.87;78.87;99523.34;6249508;22;20542;-87
2022/12/02 05:25:26;;;;;;;12.57;4.67;;;;;;;9.77;79.50;99527.28;6276111;22;20148;-87
2022/12/02 05:27:51;;;;;;;11.87;4.83;;;;;;;9.75;79.49;99529.94;6249879;22;20159;-87
2022/12/02 05:30:19;;;;;;;11.10;5.23;;;;;;;9.85;79.34;99531.25;6275690;22;20145;-86
2022/12/02 05:32:46;;;;;;;11.50;5.00;;;;;;;9.84;79.34;99532.19;6276201;22;20475;-87
2022/12/02 05:35:13;;;;;;;9.07;4.93;;;;;;;9.91;79.11;99522.28;6275872;22;20159;-86
2022/12/02 05:37:39;;;;;;;11.77;4.70;;;;;;;9.99;78.39;99532.41;6275847;22;20605;-86
2022/12/02 05:40:05;;;;;;;11.70;5.00;;;;;;;10.01;77.96;99531.41;6276552;22;20151;-87
2022/12/02 05:42:30;;;;;;;8.20;3.70;;;;;;;9.88;78.56;99535.50;6276073;22;20184;-87
2022/12/02 05:44:59;;;;;;;8.23;4.33;;;;;;;9.88;78.67;99536.34;6276177;22;20174;-87
2022/12/02 05:47:28;;;;;;;9.87;3.53;;;;;;;9.85;78.39;99536.47;6249540;22;20544;-86
2022/12/02 05:49:53;;;;;;;9.17;3.77;;;;;;;9.82;78.89;99541.00;6250546;22;20183;-86
2022/12/02 05:52:25;;;;;;;12.13;4.70;;;;;;;9.89;78.67;99542.44;6278085;22;20151;-87
2022/12/02 05:54:55;;;;;;;18.97;9.33;;;;;;;9.87;78.65;99534.66;6278418;22;20281;-87
2022/12/02 05:57:25;;;;;;;7.90;4.20;;;;;;;9.88;78.90;99545.97;6277926;22;20594;-87
2022/12/02 06:00:00;;;;;;;13.33;5.17;;;;;;;9.68;80.09;99551.22;6251286;22;20180;-86
2022/12/02 06:02:34;;;;;;;9.87;5.27;;;;;;;9.72;79.60;99550.19;6277873;22;20630;-87
2022/12/02 06:05:00;;;;;;;14.33;5.27;;;;;;;9.70;80.17;99557.22;6277943;22;20137;-87
2022/12/02 06:07:25;;;;;;;8.30;4.40;;;;;;;9.64;80.37;99552.28;6251189;22;20151;-87
2022/12/02 06:09:52;;;;;;;8.03;4.47;;;;;;;9.76;80.61;99551.75;6278478;22;20151;-87
2022/12/02 06:12:20;;;;;;;11.37;4.67;;;;;;;9.89;79.69;99553.78;6277834;22;20453;-87
2022/12/02 06:14:53;;;;;;;10.23;4.57;;;;;;;9.83;79.63;99554.03;6251103;22;20633;-87
2022/12/02 06:17:20;;;;;;;8.23;3.00;;;;;;;9.73;80.06;99551.88;6277806;22;20152;-87
2022/12/02 06:19:52;;;;;;;10.73;3.87;;;;;;;9.89;79.65;99566.00;6277548;22;20500;-87
2022/12/02 06:22:31;;;;;;;10.07;3.90;;;;;;;10.02;79.50;99563.69;6250933;22;20689;-87
2022/12/02 06:24:59;;;;;;;9.23;3.67;;;;;;;10.01;79.42;99562.84;6250923;22;20176;-87
2022/12/02 06:27:26;;;;;;;7.60;3.43;;;;;;;9.97;79.12;99561.28;6250958;22;20152;-87
2022/12/02 06:29:57;;;;;;;9.10;3.07;;;;;;;9.89;79.66;99564.25;6277982;22;20144;-87
2022/12/02 06:32:28;;;;;;;12.00;4.47;;;;;;;9.86;80.00;99558.28;6250955;22;20646;-87
2022/12/02 06:34:53;;;;;;;10.30;3.37;;;;;;;9.96;79.43;99558.75;6250844;22;20227;-87
2022/12/02 06:37:22;;;;;;;8.23;3.27;;;;;;;10.03;79.40;99566.28;6251235;22;20241;-87
2022/12/02 06:39:54;;;;;;;7.60;3.83;;;;;;;10.10;78.86;99572.06;6278277;22;20527;-87
2022/12/02 06:42:35;;;;;;;6.67;3.60;;;;;;;10.02;79.05;99567.19;6250758;22;20182;-87
2022/12/02 06:45:21;;;;;;;11.97;4.83;;;;;;;9.98;79.78;99565.63;6250740;22;20174;-87
2022/12/02 06:48:01;;;;;;;10.83;4.63;;;;;;;9.85;80.35;99569.69;6278207;22;20500;-87
2022/12/02 06:50:39;;;;;;;16.57;5.00;;;;;;;9.95;80.22;99575.38;6278191;22;20155;-87
2022/12/02 06:53:26;;;;;;;13.57;5.87;;;;;;;9.87;80.29;99580.94;6250699;22;20148;-88
2022/12/02 06:55:57;;;;;;;11.83;5.00;;;;;;;9.82;80.73;99585.53;6277703;22;20145;-87
2022/12/02 06:58:33;;;;;;;12.40;5.50;;;;;;;9.84;80.64;99589.78;6250739;22;20155;-87
2022/12/02 07:01:17;;;;;;;14.33;5.37;;;;;;;9.89;80.59;99589.56;6277459;22;20137;-87
2022/12/02 07:04:04;;;;;;;10.87;5.17;;;;;;;10.06;80.30;99583.63;6250867;22;20615;-87
2022/12/02 07:06:30;;;;;;;14.93;6.90;;;;;;;10.06;80.20;99587.09;6250743;22;20174;-87
2022/12/02 07:08:59;;;;;;;17.57;6.10;;;;;;;10.05;80.14;99580.16;6277305;22;20179;-88
2022/12/02 07:11:49;;;;;;;11.87;4.93;;;;;;;10.10;79.12;99583.41;6250557;22;20210;-87
2022/12/02 07:14:19;;;;;;;10.27;5.00;;;;;;;10.01;79.68;99583.78;6277144;22;20209;-87
2022/12/02 07:16:45;;;;;;;10.87;5.40;;;;;;;9.90;80.22;99586.03;6277574;22;20160;-87
2022/12/02 07:19:44;;;;;;;12.60;5.43;;;;;;;10.01;79.87;99582.97;6245160;23;20173;-87
2022/12/02 07:22:34;;;;;;;12.83;5.30;;;;;;;10.04;79.81;99591.53;6235984;23;20171;-87
2022/12/02 07:25:20;;;;;;;14.50;6.13;;;;;;;10.01;80.17;99594.28;6246908;22;20141;-87
2022/12/02 07:27:49;;;;;;;10.53;4.70;;;;;;;10.15;80.16;99602.44;6220208;23;20643;-88
2022/12/02 07:30:30;;;;;;;12.77;5.73;;;;;;;10.20;79.76;99603.09;6245650;23;20236;-88
2022/12/02 07:32:56;;;;;;;10.37;4.80;;;;;;;10.13;79.18;99596.41;6247179;22;20144;-87
2022/12/02 07:35:22;;;;;;;13.63;5.10;;;;;;;10.14;79.77;99599.88;6245214;23;20152;-87
2022/12/02 07:37:48;;;;;;;14.20;5.20;;;;;;;10.23;79.33;99599.47;6245612;23;20153;-88
2022/12/02 07:40:15;;;;;;;13.97;6.00;;;;;;;10.11;79.96;99606.09;6245197;23;20497;-87
2022/12/02 07:42:42;;;;;;;18.23;7.17;;;;;;;10.15;79.87;99609.44;6246568;22;20181;-87
2022/12/02 07:45:14;;;;;;;16.97;6.97;;;;;;;10.22;79.78;99610.88;6246750;22;20175;-88
2022/12/02 07:47:40;;;;;;;13.57;6.03;;;;;;;10.33;79.67;99612.09;6247021;22;20145;-87
2022/12/02 07:50:07;;;;;;;15.43;6.80;;;;;;;10.34;79.14;99616.44;6246937;22;20483;-87
2022/12/02 07:52:33;;;;;;;16.97;7.13;;;;;;;10.24;79.65;99623.00;6245012;23;20481;-87
2022/12/02 07:55:00;;;;;;;16.57;7.20;;;;;;;10.30;79.60;99621.84;6246226;22;20145;-88
2022/12/02 07:57:26;;;;;;;21.50;8.73;;;;;;;10.42;79.21;99622.19;6246166;22;20644;-87
2022/12/02 07:59:51;;;;;;;17.43;8.23;;;;;;;10.29;79.31;99621.03;6244961;23;20153;-87
2022/12/02 08:02:17;;;;;;;14.83;6.93;;;;;;;10.19;79.45;99622.34;6244895;23;20188;-87
2022/12/02 08:04:42;;;;;;;20.03;8.17;;;;;;;10.29;79.70;99628.91;6246153;22;20624;-87
2022/12/02 08:07:08;;;;;;;11.60;5.40;;;;;;;10.17;79.55;99632.03;6246793;22;20152;-87
2022/12/02 08:09:33;;;;;;;14.43;5.77;;;;;;;10.11;80.05;99632.28;6244926;23;20153;-87
2022/12/02 08:11:58;;;;;;;12.80;5.33;;;;;;;10.13;80.78;99633.09;6245224;23;20572;-87
2022/12/02 08:14:24;;;;;;;20.23;6.60;;;;;;;10.20;80.21;99626.66;6244337;23;20239;-87
2022/12/02 08:16:49;;;;;;;8.53;4.83;;;;;;;10.24;80.09;99628.25;6244849;23;20180;-87
2022/12/02 08:19:15;;;;;;;13.60;5.97;;;;;;;10.36;80.08;99632.94;6252296;22;20626;-87
2022/12/02 08:21:40;;;;;;;8.43;3.93;;;;;;;10.38;78.98;99630.22;6250313;22;20544;-87
2022/12/02 08:24:07;;;;;;;10.67;4.63;;;;;;;10.45;79.02;99636.94;6251117;22;20262;-87
2022/12/02 08:26:32;;;;;;;13.87;5.77;;;;;;;10.48;78.77;99636.81;6250901;22;20218;-87
2022/12/02 08:28:58;;;;;;;8.90;4.20;;;;;;;10.42;78.88;99632.69;6250333;22;20148;-87
2022/12/02 08:31:23;;;;;;;13.17;6.00;;;;;;;10.41;78.91;99637.97;6276958;22;20206;-87
2022/12/02 08:33:50;;;;;;;17.33;5.53;;;;;;;10.40;78.82;99637.09;6276974;22;20581;-87
2022/12/02 08:36:15;;;;;;;16.47;5.77;;;;;;;10.39;79.10;99635.44;6276850;22;20147;-87
2022/12/02 08:38:41;;;;;;;12.97;5.23;;;;;;;10.39;78.85;99632.81;6249822;22;20156;-87
2022/12/02 08:41:07;;;;;;;13.93;6.27;;;;;;;10.36;78.82;99638.19;6276559;22;20477;-87
2022/12/02 08:43:32;;;;;;;18.83;7.13;;;;;;;10.19;79.44;99645.94;6276450;22;20176;-87
2022/12/02 08:45:58;;;;;;;17.47;6.73;;;;;;;10.24;79.39;99641.34;6276448;22;20166;-87
2022/12/02 08:48:23;;;;;;;19.20;7.13;;;;;;;10.28;79.70;99650.75;6276865;22;20467;-87
2022/12/02 08:50:49;;;;;;;15.73;7.07;;;;;;;10.41;79.29;99644.06;6276423;22;20231;-87
2022/12/02 08:53:14;;;;;;;22.17;8.27;;;;;;;10.54;79.08;99640.88;6276453;22;20475;-87
2022/12/02 08:55:39;;;;;;;14.70;6.93;;;;;;;10.57;78.72;99633.75;6277134;22;20313;-87
2022/12/02 08:58:05;;;;;;;17.67;7.33;;;;;;;10.67;78.73;99636.81;6249661;22;20233;-87
2022/12/02 09:00:31;;;;;;;17.77;7.90;;;;;;;10.71;78.53;99627.91;6276417;22;20152;-88
2022/12/02 09:02:56;;;;;;;20.97;8.03;;;;;;;10.68;78.64;99620.16;6276368;22;20183;-87
2022/12/02 09:05:21;;;;;;;18.00;6.43;;;;;;;10.76;79.48;99628.53;6249605;22;20536;-88
2022/12/02 09:07:47;;;;;;;17.97;7.90;;;;;;;10.90;78.17;99629.59;6249698;22;20580;-87
2022/12/02 09:10:13;;;;;;;28.17;13.17;;;;;;;10.96;78.50;99628.47;6250056;22;20159;-87
2022/12/02 09:12:39;;;;;;;18.53;7.13;;;;;;;10.96;78.36;99628.47;6249604;22;20152;-87
2022/12/02 09:15:05;;;;;;;19.27;6.43;;;;;;;11.03;78.53;99629.91;6276312;22;20163;-88
2022/12/02 09:17:31;;;;;;;12.70;6.53;;;;;;;10.96;78.22;99628.47;6276250;22;20218;-87
2022/12/02 09:19:56;;;;;;;14.50;6.43;;;;;;;10.85;78.59;99620.22;6276502;22;20168;-87
2022/12/02 09:22:22;;;;;;;10.50;4.80;;;;;;;11.03;78.91;99620.25;6276933;22;20247;-88
2022/12/02 09:24:47;;;;;;;15.93;6.07;;;;;;;11.10;78.66;99612.94;6277339;22;20144;-87
2022/12/02 09:27:13;;;;;;;50.53;12.67;;;;;;;11.04;79.02;99628.97;6251500;22;20528;-87
2022/12/02 09:29:38;;;;;;;13.20;5.30;;;;;;;11.17;79.09;99627.47;6278185;22;20210;-88
2022/12/02 09:32:04;;;;;;;11.27;4.80;;;;;;;11.22;78.06;99630.72;6278514;22;20144;-87
2022/12/02 09:34:29;;;;;;;9.70;4.63;;;;;;;11.25;78.12;99633.22;6251764;22;20152;-88
2022/12/02 09:36:55;;;;;;;12.47;3.37;;;;;;;11.22;77.48;99624.63;6278839;22;20151;-88
2022/12/02 09:39:20;;;;;;;14.70;3.70;;;;;;;11.17;77.51;99630.09;6251812;22;20170;-88
2022/12/02 09:41:46;;;;;;;7.40;3.57;;;;;;;11.15;77.77;99636.34;6252796;22;20144;-88
2022/12/02 09:44:11;;;;;;;7.87;3.80;;;;;;;11.21;77.79;99639.53;6277967;22;20168;-88
2022/12/02 09:46:37;;;;;;;8.17;3.03;;;;;;;11.32;77.46;99633.78;6251378;22;20539;-87
2022/12/02 09:49:03;;;;;;;12.03;4.23;;;;;;;11.42;77.56;99637.66;6251275;22;20647;-88
2022/12/02 09:51:29;;;;;;;8.90;3.80;;;;;;;11.54;77.32;99632.66;6251218;22;20253;-87
2022/12/02 09:53:56;;;;;;;7.83;3.07;;;;;;;11.55;76.72;99633.53;6278005;22;20198;-88
2022/12/02 09:56:22;;;;;;;7.50;3.33;;;;;;;11.49;76.23;99631.19;6251176;22;20155;-88
2022/12/02 09:58:49;;;;;;;7.53;2.63;;;;;;;11.50;76.96;99636.34;6278264;22;20220;-87
2022/12/02 10:01:15;;;;;;;4.50;2.17;;;;;;;11.54;76.20;99632.66;6251706;22;20157;-88
2022/12/02 10:03:43;;;;;;;7.27;4.00;;;;;;;11.50;76.54;99630.28;6251097;22;20260;-88
2022/12/02 10:06:16;;;;;;;8.83;3.27;;;;;;;11.54;76.55;99623.94;6277910;22;20144;-88
2022/12/02 10:08:42;;;;;;;8.53;3.90;;;;;;;11.64;75.93;99625.19;6251133;22;20145;-88
2022/12/02 10:11:19;;;;;;;7.73;3.50;;;;;;;11.66;76.37;99616.31;6251106;22;20175;-88
2022/12/02 10:13:44;;;;;;;7.13;3.90;;;;;;;11.67;75.99;99622.41;6251493;22;20630;-88
2022/12/02 10:16:12;;;;;;;9.23;4.23;;;;;;;11.57;75.95;99626.41;6251069;22;20156;-87
2022/12/02 10:18:39;;;;;;;9.67;3.53;;;;;;;11.59;76.14;99633.28;6251717;22;20173;-87
2022/12/02 10:21:04;;;;;;;6.30;2.97;;;;;;;11.67;75.83;99622.41;6245781;23;20165;-87
2022/12/02 10:23:31;;;;;;;7.03;3.13;;;;;;;11.69;75.80;99626.69;6245821;23;20184;-87
2022/12/02 10:26:06;;;;;;;6.20;2.70;;;;;;;11.74;75.87;99618.56;6245927;23;20477;-87
2022/12/02 10:28:33;;;;;;;6.87;2.23;;;;;;;11.73;76.41;99626.53;6246178;23;20180;-87
2022/12/02 10:31:03;;;;;;;11.13;6.00;;;;;;;11.80;76.66;99620.91;6245825;23;20153;-87
2022/12/02 10:33:31;;;;;;;8.40;3.53;;;;;;;11.83;75.80;99623.38;6246206;23;20156;-87
2022/12/02 10:35:59;;;;;;;8.17;3.07;;;;;;;11.77;75.74;99622.81;6245714;23;20153;-88
2022/12/02 10:38:40;;;;;;;9.97;4.90;;;;;;;11.89;75.03;99623.09;6246942;22;20149;-87
2022/12/02 10:41:14;;;;;;;8.57;4.57;;;;;;;11.93;75.88;99615.88;6247169;23;20169;-87
2022/12/02 10:44:00;;;;;;;7.10;3.77;;;;;;;12.01;75.67;99613.72;6245607;23;20176;-87
2022/12/02 10:46:26;;;;;;;8.87;2.83;;;;;;;12.00;75.95;99614.66;6247631;22;20141;-87
2022/12/02 10:48:51;;;;;;;7.93;3.13;;;;;;;12.08;75.60;99612.50;6245654;23;20196;-87
2022/12/02 10:51:19;;;;;;;6.53;3.57;;;;;;;12.18;74.93;99611.09;6247165;22;20560;-87
2022/12/02 10:53:48;;;;;;;6.17;3.13;;;;;;;12.15;74.65;99611.25;6246017;23;20149;-88
2022/12/02 10:56:25;;;;;;;6.40;3.23;;;;;;;12.13;75.38;99605.25;6247104;22;20154;-88
2022/12/02 10:58:51;;;;;;;8.17;4.27;;;;;;;12.12;75.84;99606.16;6245613;23;20150;-87
2022/12/02 11:01:19;;;;;;;10.77;4.07;;;;;;;12.27;75.12;99592.22;6246520;23;20180;-88
2022/12/02 11:03:46;;;;;;;11.80;4.57;;;;;;;12.34;74.98;99597.06;6245353;23;20185;-87
2022/12/02 11:06:14;;;;;;;12.40;5.47;;;;;;;12.34;74.10;99602.31;6247030;22;20147;-87
2022/12/02 11:08:41;;;;;;;11.20;5.50;;;;;;;12.32;74.62;99593.69;6247001;22;20156;-88
2022/12/02 11:11:07;;;;;;;13.40;5.00;;;;;;;12.36;74.23;99599.63;6245763;23;20166;-87
2022/12/02 11:13:50;;;;;;;15.10;6.13;;;;;;;12.04;74.08;99606.53;6245689;23;20237;-87
2022/12/02 11:16:28;;;;;;;14.17;6.13;;;;;;;11.99;74.26;99608.56;6245339;23;20156;-88
2022/12/02 11:19:16;;;;;;;18.73;6.37;;;;;;;12.02;74.40;99604.94;6246802;22;20564;-88
2022/12/02 11:21:43;;;;;;;14.93;5.77;;;;;;;12.08;74.18;99604.63;6277871;22;20150;-88
2022/12/02 11:24:21;;;;;;;17.10;5.93;;;;;;;12.16;74.20;99603.28;6250595;22;20189;-88
2022/12/02 11:26:59;;;;;;;23.47;6.00;;;;;;;12.23;74.37;99606.44;6250298;22;20153;-88
2022/12/02 11:29:26;;;;;;;25.83;8.90;;;;;;;12.27;74.36;99605.34;6250245;22;20491;-88
2022/12/02 11:32:20;;;;;;;20.07;7.53;;;;;;;12.39;74.17;99606.50;6277240;22;20169;-88
2022/12/02 11:34:51;;;;;;;19.90;6.87;;;;;;;12.42;73.82;99596.66;6251589;22;20500;-88
2022/12/02 11:37:28;;;;;;;32.87;8.57;;;;;;;12.43;73.66;99606.25;6250436;22;20185;-88
2022/12/02 11:39:55;;;;;;;25.50;8.30;;;;;;;12.50;72.70;99602.38;6276934;22;20162;-88
2022/12/02 11:42:23;;;;;;;16.50;7.03;;;;;;;12.48;72.83;99595.50;6276829;22;20149;-88
2022/12/02 11:44:50;;;;;;;18.60;7.53;;;;;;;12.45;72.80;99607.03;6250432;22;20246;-88